createdAt,value
2023-03-15T00:01:07.622Z,34.96
2023-03-15T00:03:37.368Z,35.40
2023-03-15T00:06:04.827Z,36.39
2023-03-15T00:08:33.302Z,36.95
2023-03-15T00:11:01.092Z,37.35
2023-03-15T00:13:28.031Z,37.67
2023-03-15T00:15:58.465Z,37.86
2023-03-15T00:18:26.508Z,38.12
2023-03-15T00:20:53.499Z,38.29
2023-03-15T00:23:20.810Z,38.43
2023-03-15T00:25:49.536Z,38.58
2023-03-15T00:28:16.671Z,38.77
2023-03-15T00:30:43.943Z,38.93
2023-03-15T00:33:14.288Z,38.99
2023-03-15T00:35:43.176Z,39.14
2023-03-15T00:38:10.172Z,39.06
2023-03-15T00:40:38.228Z,39.19
2023-03-15T00:43:05.452Z,39.39
2023-03-15T00:45:32.673Z,39.57
2023-03-15T00:47:59.787Z,39.50
2023-03-15T00:50:26.756Z,39.55
2023-03-15T00:52:53.579Z,39.64
2023-03-15T00:55:21.831Z,39.82
2023-03-15T00:57:48.850Z,39.99
2023-03-15T01:00:24.666Z,40.11
2023-03-15T01:02:55.150Z,39.95
2023-03-15T01:05:22.848Z,39.92
2023-03-15T01:07:50.135Z,40.03
2023-03-15T01:10:17.531Z,40.12
2023-03-15T01:12:45.171Z,40.24
2023-03-15T01:15:14.279Z,40.06
2023-03-15T01:17:42.096Z,40.14
2023-03-15T01:20:11.987Z,40.10
2023-03-15T01:22:38.867Z,40.19
2023-03-15T01:25:07.654Z,40.20
2023-03-15T01:27:35.097Z,40.15
2023-03-15T01:30:02.314Z,40.19
2023-03-15T01:32:29.226Z,40.25
2023-03-15T01:34:56.130Z,40.68
2023-03-15T01:37:24.809Z,40.68
2023-03-15T01:39:51.605Z,40.71
2023-03-15T01:42:18.493Z,40.78
2023-03-15T01:44:54.384Z,40.67
2023-03-15T01:47:21.745Z,40.56
2023-03-15T01:49:54.915Z,40.64
2023-03-15T01:52:30.342Z,40.63
2023-03-15T01:55:13.296Z,40.73
2023-03-15T01:57:57.438Z,40.80
2023-03-15T02:00:27.725Z,40.98
2023-03-15T02:03:10.075Z,40.99
2023-03-15T02:05:46.255Z,41.12
2023-03-15T02:08:19.091Z,41.04
2023-03-15T02:10:56.353Z,41.06
2023-03-15T02:13:25.862Z,41.35
2023-03-15T02:15:54.700Z,41.44
2023-03-15T02:18:26.088Z,41.58
2023-03-15T02:20:57.391Z,41.76
2023-03-15T02:23:24.823Z,41.53
2023-03-15T02:25:57.493Z,41.29
2023-03-15T02:28:27.954Z,41.11
2023-03-15T02:30:55.509Z,41.25
2023-03-15T02:33:39.012Z,41.20
2023-03-15T02:36:14.824Z,41.27
2023-03-15T02:38:43.045Z,41.43
2023-03-15T02:41:13.484Z,41.75
2023-03-15T02:43:42.085Z,41.58
2023-03-15T02:46:10.149Z,41.22
2023-03-15T02:48:39.099Z,41.21
2023-03-15T02:51:06.203Z,40.94
2023-03-15T02:53:34.101Z,41.45
2023-03-15T02:56:00.908Z,41.52
2023-03-15T02:58:27.866Z,41.09
2023-03-15T03:00:54.707Z,40.77
2023-03-15T03:03:21.572Z,40.53
2023-03-15T03:05:48.608Z,40.65
2023-03-15T03:08:16.643Z,40.81
2023-03-15T03:10:43.856Z,40.96
2023-03-15T03:13:10.617Z,41.40
2023-03-15T03:15:38.491Z,41.75
2023-03-15T03:18:05.374Z,41.67
2023-03-15T03:20:33.505Z,41.87
2023-03-15T03:23:05.942Z,41.30
2023-03-15T03:25:33.124Z,40.41
2023-03-15T03:27:59.993Z,40.08
2023-03-15T03:30:27.569Z,39.60
2023-03-15T03:32:54.447Z,39.41
2023-03-15T03:35:21.617Z,39.68
2023-03-15T03:37:48.542Z,39.16
2023-03-15T03:40:18.854Z,39.42
2023-03-15T03:42:45.692Z,39.76
2023-03-15T03:45:12.579Z,39.34
2023-03-15T03:47:42.346Z,39.07
2023-03-15T03:50:11.228Z,39.43
2023-03-15T03:52:38.090Z,40.31
2023-03-15T03:55:07.922Z,41.06
2023-03-15T03:57:34.774Z,41.54
2023-03-15T04:00:02.252Z,41.84
2023-03-15T04:02:30.863Z,42.02
2023-03-15T04:05:04.472Z,42.38
2023-03-15T04:07:31.292Z,42.63
2023-03-15T04:09:58.248Z,42.79
2023-03-15T04:12:26.466Z,43.08
2023-03-15T04:14:54.855Z,43.02
2023-03-15T04:17:23.563Z,43.12
2023-03-15T04:19:50.414Z,43.28
2023-03-15T04:22:25.001Z,43.24
2023-03-15T04:25:27.505Z,43.29
2023-03-15T04:28:14.409Z,43.38
2023-03-15T04:30:52.229Z,43.52
2023-03-15T04:33:39.572Z,43.68
2023-03-15T04:36:06.770Z,43.65
2023-03-15T04:39:06.107Z,43.65
2023-03-15T04:41:45.105Z,43.79
2023-03-15T04:44:30.533Z,43.81
2023-03-15T04:46:59.905Z,43.88
2023-03-15T04:49:34.100Z,43.89
2023-03-15T04:52:25.585Z,43.73
2023-03-15T04:55:20.592Z,43.70
2023-03-15T04:58:05.065Z,43.65
2023-03-15T05:00:44.960Z,43.75
2023-03-15T05:03:27.633Z,43.93
2023-03-15T05:06:08.815Z,44.09
2023-03-15T05:08:45.493Z,43.53
2023-03-15T05:11:32.559Z,42.69
2023-03-15T05:14:19.809Z,42.66
2023-03-15T05:17:05.716Z,42.30
2023-03-15T05:19:46.162Z,42.01
2023-03-15T05:22:31.221Z,41.98
2023-03-15T05:25:16.249Z,40.90
2023-03-15T05:28:12.446Z,40.47
2023-03-15T05:31:07.136Z,40.13
2023-03-15T05:33:36.446Z,40.05
2023-03-15T05:36:23.466Z,39.61
2023-03-15T05:39:03.161Z,39.60
2023-03-15T05:41:50.309Z,39.48
2023-03-15T05:44:57.055Z,39.58
2023-03-15T05:47:42.786Z,39.92
2023-03-15T05:50:24.421Z,39.78
2023-03-15T05:53:17.209Z,39.72
2023-03-15T05:56:10.009Z,39.32
2023-03-15T05:59:10.467Z,39.44
2023-03-15T06:02:09.588Z,39.05
2023-03-15T06:04:51.046Z,38.48
2023-03-15T06:07:21.265Z,37.98
2023-03-15T06:09:48.261Z,38.00
2023-03-15T06:12:15.259Z,37.85
2023-03-15T06:14:42.190Z,37.67
2023-03-15T06:17:09.260Z,37.31
2023-03-15T06:19:37.847Z,36.53
2023-03-15T06:22:04.945Z,36.01
2023-03-15T06:24:37.732Z,35.52
2023-03-15T06:27:06.123Z,34.68
2023-03-15T06:29:34.885Z,34.00
2023-03-15T06:32:03.367Z,33.65
2023-03-15T06:34:50.188Z,32.91
2023-03-15T06:37:29.024Z,33.02
2023-03-15T06:39:59.790Z,32.74
2023-03-15T06:42:27.241Z,32.48
2023-03-15T06:44:55.135Z,32.17
2023-03-15T06:47:22.119Z,31.46
2023-03-15T06:49:50.505Z,31.30
2023-03-15T06:52:17.961Z,30.82
2023-03-15T06:54:44.940Z,30.16
2023-03-15T06:57:11.934Z,30.09
2023-03-15T06:59:38.727Z,29.60
2023-03-15T07:02:06.321Z,29.16
2023-03-15T07:04:33.112Z,28.69
2023-03-15T07:06:59.965Z,28.30
2023-03-15T07:09:26.950Z,27.74
2023-03-15T07:11:53.727Z,27.46
2023-03-15T07:14:21.323Z,27.27
2023-03-15T07:16:48.545Z,26.82
2023-03-15T07:19:15.331Z,26.05
2023-03-15T07:21:42.152Z,25.47
2023-03-15T07:24:09.110Z,25.08
2023-03-15T07:26:35.873Z,24.52
2023-03-15T07:29:02.703Z,23.58
2023-03-15T07:31:29.987Z,22.96
2023-03-15T07:33:56.770Z,22.57
2023-03-15T07:36:24.056Z,22.32
2023-03-15T07:38:50.837Z,22.24
2023-03-15T07:41:17.806Z,21.85
2023-03-15T07:43:58.130Z,21.63
2023-03-15T07:46:25.573Z,21.54
2023-03-15T07:48:52.496Z,21.17
2023-03-15T07:51:19.343Z,21.23
2023-03-15T07:53:46.120Z,20.93
2023-03-15T07:56:12.902Z,20.48
2023-03-15T07:58:39.750Z,20.56
2023-03-15T08:01:06.665Z,20.22
2023-03-15T08:03:33.483Z,20.21
2023-03-15T08:06:00.248Z,20.21
2023-03-15T08:08:27.387Z,20.43
2023-03-15T08:10:55.955Z,20.37
2023-03-15T08:13:25.160Z,20.29
2023-03-15T08:15:59.541Z,20.48
2023-03-15T08:18:29.069Z,20.55
2023-03-15T08:20:56.355Z,20.65
2023-03-15T08:23:23.461Z,20.60
2023-03-15T08:25:50.272Z,21.31
2023-03-15T08:28:17.627Z,21.85
2023-03-15T08:30:44.666Z,22.16
2023-03-15T08:33:12.633Z,22.26
2023-03-15T08:35:39.475Z,22.08
2023-03-15T08:38:06.367Z,22.13
2023-03-15T08:40:33.291Z,22.06
2023-03-15T08:43:00.156Z,22.40
2023-03-15T08:45:27.477Z,22.61
2023-03-15T08:47:58.489Z,22.67
2023-03-15T08:50:26.794Z,22.56
2023-03-15T08:52:53.666Z,23.02
2023-03-15T08:55:20.841Z,23.18
2023-03-15T08:57:47.789Z,23.05
2023-03-15T09:00:20.806Z,22.92
2023-03-15T09:02:49.297Z,23.34
2023-03-15T09:05:16.841Z,23.32
2023-03-15T09:07:44.297Z,23.49
2023-03-15T09:10:15.214Z,23.74
2023-03-15T09:12:44.290Z,23.85
2023-03-15T09:15:12.071Z,24.02
2023-03-15T09:17:39.695Z,23.94
2023-03-15T09:20:11.288Z,24.16
2023-03-15T09:22:39.685Z,24.53
2023-03-15T09:25:07.237Z,24.74
2023-03-15T09:27:34.137Z,25.22
2023-03-15T09:30:01.073Z,25.34
2023-03-15T09:32:28.185Z,25.53
2023-03-15T09:34:55.028Z,25.60
2023-03-15T09:37:22.056Z,25.60
2023-03-15T09:39:49.121Z,25.93
2023-03-15T09:42:49.356Z,26.13
2023-03-15T09:45:21.951Z,26.23
2023-03-15T09:48:00.697Z,26.32
2023-03-15T09:50:35.077Z,26.40
2023-03-15T09:53:10.355Z,26.95
2023-03-15T09:55:37.292Z,26.53
2023-03-15T09:58:11.263Z,26.34
2023-03-15T10:00:40.800Z,26.55
2023-03-15T10:03:30.447Z,26.62
2023-03-15T10:06:01.456Z,26.88
2023-03-15T10:08:28.561Z,26.87
2023-03-15T10:11:15.173Z,27.07
2023-03-15T10:13:56.898Z,27.09
2023-03-15T10:17:07.387Z,27.30
2023-03-15T10:19:47.230Z,27.57
2023-03-15T10:22:13.859Z,27.57
2023-03-15T10:24:50.768Z,27.56
2023-03-15T10:27:20.311Z,27.55
2023-03-15T10:29:50.446Z,27.62
2023-03-15T10:32:19.294Z,27.70
2023-03-15T10:34:50.740Z,27.74
2023-03-15T10:37:17.963Z,27.90
2023-03-15T10:39:50.643Z,28.05
2023-03-15T10:42:28.067Z,27.98
2023-03-15T10:44:55.571Z,28.02
2023-03-15T10:47:24.526Z,28.55
2023-03-15T10:49:58.509Z,28.62
2023-03-15T10:52:35.468Z,28.55
2023-03-15T10:55:07.077Z,28.46
2023-03-15T10:57:39.215Z,28.60
2023-03-15T11:00:36.808Z,28.64
2023-03-15T11:03:19.684Z,28.69
2023-03-15T11:05:55.894Z,28.50
2023-03-15T11:08:41.842Z,28.97
2023-03-15T11:11:09.461Z,28.99
2023-03-15T11:13:39.234Z,28.86
2023-03-15T11:16:09.805Z,29.06
2023-03-15T11:18:42.607Z,29.38
2023-03-15T11:21:14.242Z,29.53
2023-03-15T11:23:46.713Z,29.60
2023-03-15T11:26:32.179Z,29.66
2023-03-15T11:29:06.669Z,29.52
2023-03-15T11:31:35.521Z,29.65
2023-03-15T11:34:16.150Z,29.99
2023-03-15T11:36:49.093Z,29.89
2023-03-15T11:39:30.943Z,29.95
2023-03-15T11:42:05.209Z,29.94
2023-03-15T11:44:40.016Z,29.95
2023-03-15T11:47:34.878Z,30.06
2023-03-15T11:50:02.024Z,30.53
2023-03-15T11:52:30.030Z,30.92
2023-03-15T11:55:01.808Z,31.38
2023-03-15T11:57:28.515Z,31.81
2023-03-15T12:00:17.115Z,32.19
2023-03-15T12:02:56.584Z,32.62
2023-03-15T12:05:49.076Z,32.88
2023-03-15T12:08:18.201Z,33.14
2023-03-15T12:10:47.324Z,33.34
2023-03-15T12:13:24.749Z,33.31
2023-03-15T12:15:52.338Z,33.58
2023-03-15T12:18:22.806Z,33.60
2023-03-15T12:20:53.215Z,33.64
2023-03-15T12:23:19.913Z,33.56
2023-03-15T12:26:05.501Z,33.67
2023-03-15T12:28:50.629Z,33.92
2023-03-15T12:31:19.348Z,34.41
2023-03-15T12:33:53.223Z,34.31
2023-03-15T12:36:32.339Z,34.56
2023-03-15T12:39:19.155Z,34.53
2023-03-15T12:41:48.949Z,34.86
2023-03-15T12:44:33.370Z,34.97
2023-03-15T12:47:02.342Z,35.17
2023-03-15T12:49:30.924Z,35.26
2023-03-15T12:52:02.707Z,35.48
2023-03-15T12:54:47.131Z,35.59
2023-03-15T12:57:18.101Z,35.51
2023-03-15T12:59:55.377Z,35.48
2023-03-15T13:02:39.786Z,35.60
2023-03-15T13:05:18.008Z,35.21
2023-03-15T13:07:56.483Z,35.10
2023-03-15T13:10:41.748Z,35.13
2023-03-15T13:13:30.176Z,35.29
2023-03-15T13:16:09.184Z,34.95
2023-03-15T13:19:06.667Z,35.02
2023-03-15T13:21:42.978Z,34.72
2023-03-15T13:24:21.874Z,34.49
2023-03-15T13:26:59.482Z,34.77
2023-03-15T13:29:33.509Z,34.68
2023-03-15T13:32:22.379Z,34.69
2023-03-15T13:34:50.021Z,34.53
2023-03-15T13:37:25.810Z,34.58
2023-03-15T13:39:59.833Z,34.30
2023-03-15T13:42:27.292Z,34.48
2023-03-15T13:45:06.252Z,34.48
2023-03-15T13:47:34.279Z,34.59
2023-03-15T13:50:05.792Z,34.48
2023-03-15T13:52:32.900Z,34.68
2023-03-15T13:55:00.676Z,34.49
2023-03-15T13:57:27.778Z,34.37
2023-03-15T14:00:00.858Z,34.54
2023-03-15T14:02:56.679Z,34.74
2023-03-15T14:05:29.376Z,34.93
2023-03-15T14:07:58.142Z,35.05
2023-03-15T14:10:36.139Z,35.25
2023-03-15T14:13:24.678Z,35.35
2023-03-15T14:15:58.307Z,35.56
2023-03-15T14:18:29.752Z,35.85
2023-03-15T14:21:16.425Z,36.09
2023-03-15T14:23:48.407Z,36.39
2023-03-15T14:26:22.841Z,36.28
2023-03-15T14:28:55.668Z,36.27
2023-03-15T14:31:29.225Z,36.31
2023-03-15T14:34:01.046Z,36.51
2023-03-15T14:36:42.489Z,36.69
2023-03-15T14:39:19.599Z,36.90
2023-03-15T14:41:46.455Z,36.85
2023-03-15T14:44:13.362Z,36.82
2023-03-15T14:46:40.143Z,36.97
2023-03-15T14:49:07.077Z,37.04
2023-03-15T14:51:33.942Z,37.14
2023-03-15T14:54:01.124Z,37.31
2023-03-15T14:56:28.023Z,37.31
2023-03-15T14:58:54.803Z,37.57
2023-03-15T15:01:28.204Z,37.50
2023-03-15T15:03:59.801Z,37.70
2023-03-15T15:06:28.568Z,37.83
2023-03-15T15:08:57.489Z,37.96
2023-03-15T15:11:25.740Z,38.24
2023-03-15T15:13:52.769Z,38.37
2023-03-15T15:16:19.767Z,38.64
2023-03-15T15:18:46.560Z,38.60
2023-03-15T15:21:14.824Z,38.80
2023-03-15T15:23:57.308Z,38.88
2023-03-15T15:26:27.556Z,38.98
2023-03-15T15:28:54.834Z,39.08
2023-03-15T15:31:23.519Z,39.25
2023-03-15T15:33:51.764Z,39.50
2023-03-15T15:36:27.806Z,39.58
2023-03-15T15:38:55.506Z,39.75
2023-03-15T15:41:28.415Z,39.82
2023-03-15T15:43:55.301Z,39.98
2023-03-15T15:46:23.950Z,40.14
2023-03-15T15:48:53.834Z,40.41
2023-03-15T15:51:34.986Z,40.55
2023-03-15T15:54:02.506Z,40.54
2023-03-15T15:56:35.258Z,40.87
2023-03-15T15:59:04.764Z,40.88
2023-03-15T16:01:32.111Z,41.20
2023-03-15T16:04:00.179Z,41.47
2023-03-15T16:06:27.404Z,41.44
2023-03-15T16:08:55.301Z,41.59
2023-03-15T16:11:22.209Z,41.99
2023-03-15T16:13:51.917Z,41.90
2023-03-15T16:16:18.938Z,42.18
2023-03-15T16:18:46.146Z,42.22
2023-03-15T16:21:23.272Z,42.19
2023-03-15T16:23:57.935Z,42.66
2023-03-15T16:26:25.263Z,42.77
2023-03-15T16:28:52.104Z,42.70
2023-03-15T16:31:24.516Z,42.92
2023-03-15T16:33:51.321Z,42.96
2023-03-15T16:36:20.798Z,43.17
2023-03-15T16:38:47.948Z,43.38
2023-03-15T16:41:17.346Z,43.61
2023-03-15T16:43:45.182Z,43.98
2023-03-15T16:46:15.417Z,43.93
2023-03-15T16:48:43.712Z,44.14
2023-03-15T16:51:14.723Z,44.45
2023-03-15T16:53:44.662Z,44.28
2023-03-15T16:56:15.277Z,44.45
2023-03-15T16:58:43.796Z,44.54
2023-03-15T17:01:11.351Z,44.70
2023-03-15T17:03:38.271Z,44.98
2023-03-15T17:06:05.410Z,45.02
2023-03-15T17:08:32.699Z,45.01
2023-03-15T17:10:59.742Z,45.07
2023-03-15T17:13:30.073Z,45.13
2023-03-15T17:15:56.911Z,45.29
2023-03-15T17:18:24.241Z,45.50
2023-03-15T17:20:51.115Z,45.50
2023-03-15T17:23:21.314Z,45.64
2023-03-15T17:25:49.083Z,45.54
2023-03-15T17:28:16.066Z,45.46
2023-03-15T17:30:42.854Z,45.55
2023-03-15T17:33:09.856Z,45.80
2023-03-15T17:35:48.137Z,45.89
2023-03-15T17:38:21.864Z,46.17
2023-03-15T17:40:49.037Z,46.17
2023-03-15T17:43:17.061Z,46.18
2023-03-15T17:45:44.268Z,46.02
2023-03-15T17:48:11.162Z,46.12
2023-03-15T17:50:38.266Z,46.06
2023-03-15T17:53:19.763Z,46.09
2023-03-15T17:55:48.150Z,46.24
2023-03-15T17:58:21.198Z,46.33
2023-03-15T18:00:50.057Z,46.47
2023-03-15T18:03:17.849Z,46.62
2023-03-15T18:05:45.187Z,47.04
2023-03-15T18:08:18.375Z,47.11
2023-03-15T18:10:46.856Z,47.35
2023-03-15T18:24:06.365Z,48.19
2023-03-15T18:26:33.297Z,48.42
2023-03-15T18:29:00.249Z,48.67
2023-03-15T18:31:27.182Z,48.80
2023-03-15T18:33:54.334Z,48.88
2023-03-15T18:36:21.674Z,49.27
2023-03-15T18:38:48.724Z,49.38
2023-03-15T18:41:19.085Z,50.19
2023-03-15T18:43:49.960Z,49.95
2023-03-15T18:46:21.965Z,49.85
2023-03-15T18:48:49.980Z,49.95
2023-03-15T18:51:17.764Z,50.08
2023-03-15T18:53:45.431Z,50.21
2023-03-15T18:56:20.518Z,50.44
2023-03-15T18:58:48.979Z,50.45
2023-03-15T19:01:17.261Z,50.53
2023-03-15T19:03:44.418Z,50.96
2023-03-15T19:06:12.688Z,50.97
2023-03-15T19:08:39.898Z,51.10
2023-03-15T19:11:08.615Z,51.17
2023-03-15T19:13:35.521Z,51.30
2023-03-15T19:16:02.900Z,51.40
2023-03-15T19:18:32.364Z,51.47
2023-03-15T19:20:59.283Z,51.64
2023-03-15T19:23:26.168Z,51.72
2023-03-15T19:25:53.108Z,51.81
2023-03-15T19:28:20.004Z,51.80
2023-03-15T19:30:47.076Z,51.86
2023-03-15T19:33:13.964Z,52.07
2023-03-15T19:35:40.883Z,52.09
2023-03-15T19:38:07.713Z,52.14
2023-03-15T19:40:34.787Z,52.32
2023-03-15T19:43:02.339Z,52.32
2023-03-15T19:45:29.449Z,52.46
2023-03-15T19:47:56.619Z,52.48
2023-03-15T19:50:23.572Z,52.45
2023-03-15T19:52:50.340Z,52.43
2023-03-15T19:55:20.012Z,52.46
2023-03-15T19:57:47.633Z,52.53
2023-03-15T20:00:18.218Z,52.77
2023-03-15T20:02:45.473Z,52.86
2023-03-15T20:05:15.194Z,52.87
2023-03-15T20:07:46.197Z,52.95
2023-03-15T20:10:13.989Z,53.08
2023-03-15T20:12:42.732Z,53.24
2023-03-15T20:15:11.589Z,53.14
2023-03-15T20:17:39.308Z,53.45
2023-03-15T20:20:10.333Z,53.55
2023-03-15T20:22:40.962Z,53.78
2023-03-15T20:25:08.953Z,54.03
2023-03-15T20:27:36.229Z,54.09
2023-03-15T20:30:03.624Z,54.13
2023-03-15T20:32:30.877Z,54.13
2023-03-15T20:34:57.864Z,54.44
2023-03-15T20:37:26.127Z,54.30
2023-03-15T20:39:53.108Z,54.53
2023-03-15T20:42:21.490Z,54.76
2023-03-15T20:44:48.481Z,54.81
2023-03-15T20:47:16.182Z,55.17
2023-03-15T20:49:43.159Z,55.45
2023-03-15T20:52:11.424Z,55.58
2023-03-15T20:54:38.267Z,55.94
2023-03-15T20:57:05.297Z,56.11
2023-03-15T20:59:32.125Z,56.28
2023-03-15T21:01:59.187Z,56.29
2023-03-15T21:04:27.799Z,56.10
2023-03-15T21:06:55.677Z,55.87
2023-03-15T21:09:22.836Z,55.92
2023-03-15T21:11:50.115Z,56.02
2023-03-15T21:14:16.996Z,55.87
2023-03-15T21:16:43.826Z,56.08
2023-03-15T21:19:10.881Z,55.98
2023-03-15T21:21:37.647Z,56.03
2023-03-15T21:24:06.381Z,56.18
2023-03-15T21:26:33.244Z,56.19
2023-03-15T21:29:00.153Z,55.97
2023-03-15T21:31:27.040Z,55.92
2023-03-15T21:33:53.863Z,55.86
2023-03-15T21:36:20.702Z,56.01
2023-03-15T21:38:47.514Z,56.13
2023-03-15T21:41:14.302Z,56.40
2023-03-15T21:43:41.135Z,56.38
2023-03-15T21:46:13.003Z,56.57
2023-03-15T21:48:42.002Z,56.47
2023-03-15T21:51:08.761Z,56.75
2023-03-15T21:53:36.178Z,56.70
2023-03-15T21:56:04.075Z,56.65
2023-03-15T21:58:31.175Z,56.76
2023-03-15T22:01:08.197Z,56.80
2023-03-15T22:03:36.478Z,56.73
2023-03-15T22:06:04.107Z,56.50
2023-03-15T22:08:31.053Z,56.16
2023-03-15T22:10:58.873Z,56.47
2023-03-15T22:13:26.473Z,56.66
2023-03-15T22:15:53.631Z,56.68
2023-03-15T22:18:21.154Z,56.70
2023-03-15T22:20:49.985Z,56.65
2023-03-15T22:23:18.323Z,56.66
2023-03-15T22:25:45.458Z,56.65
2023-03-15T22:28:12.451Z,56.57
2023-03-15T22:30:40.094Z,56.40
2023-03-15T22:33:07.350Z,56.26
2023-03-15T22:35:34.451Z,56.27
2023-03-15T22:38:10.031Z,56.29
2023-03-15T22:40:41.328Z,56.35
2023-03-15T22:43:09.182Z,56.24
2023-03-15T22:45:37.308Z,56.11
2023-03-15T22:48:04.300Z,56.22
2023-03-15T22:50:31.466Z,56.19
2023-03-15T22:52:58.317Z,56.13
2023-03-15T22:55:25.227Z,56.18
2023-03-15T22:57:52.108Z,56.05
2023-03-15T23:00:21.804Z,56.11
2023-03-15T23:02:48.727Z,56.13
2023-03-15T23:05:15.645Z,56.32
2023-03-15T23:07:42.418Z,56.26
2023-03-15T23:10:11.478Z,56.14
2023-03-15T23:12:38.568Z,55.98
2023-03-15T23:15:06.553Z,56.11
2023-03-15T23:17:33.289Z,56.15
2023-03-15T23:20:00.066Z,56.25
2023-03-15T23:22:26.956Z,56.31
2023-03-15T23:24:58.251Z,56.22
2023-03-15T23:27:26.101Z,56.15
2023-03-15T23:29:54.925Z,56.23
2023-03-15T23:32:23.038Z,56.09
2023-03-15T23:34:49.979Z,56.06
2023-03-15T23:37:17.680Z,56.07
2023-03-15T23:39:44.558Z,56.16
2023-03-15T23:42:12.135Z,56.29
2023-03-15T23:44:38.915Z,56.20
2023-03-15T23:47:06.604Z,56.10
2023-03-15T23:49:33.902Z,56.03
2023-03-15T23:52:05.891Z,55.96
2023-03-15T23:54:39.702Z,56.13
2023-03-15T23:57:11.423Z,56.20
2023-03-15T23:59:39.562Z,56.04
